Time;durP1;ratioP1;P1;durP2;ratioP2;P2;SDS_P1;SDS_P2;PMS_P1;PMS_P2;Temp;Humidity;BMP_temperature;BMP_pressure;BME280_temperature;BME280_humidity;BME280_pressure;Samples;Min_cycle;Max_cycle;Signal;HPM_P1;HPM_P2
2022/05/06 00:00:20;;;;;;;5.13;0.60;;;15.70;98.40;;;;;;5022325;28;20033;-67
2022/05/06 00:02:48;;;;;;;6.85;0.55;;;15.80;98.50;;;;;;5016400;28;20509;-67
2022/05/06 00:05:15;;;;;;;4.07;0.55;;;15.70;98.20;;;;;;5018822;28;20032;-68
2022/05/06 00:07:42;;;;;;;4.78;0.60;;;15.60;98.50;;;;;;5022500;28;20393;-68
2022/05/06 00:10:10;;;;;;;0.80;0.30;;;15.70;98.30;;;;;;5031869;28;20367;-67
2022/05/06 00:12:39;;;;;;;6.88;1.00;;;15.70;98.40;;;;;;5033427;28;20473;-68
2022/05/06 00:15:07;;;;;;;3.90;0.52;;;15.70;98.50;;;;;;5018400;28;20121;-68
2022/05/06 00:17:35;;;;;;;6.82;0.70;;;15.90;99.10;;;;;;5019026;28;20538;-68
2022/05/06 00:20:04;;;;;;;4.72;0.73;;;15.90;98.90;;;;;;5015416;28;20096;-67
2022/05/06 00:22:31;;;;;;;3.47;0.80;;;16.10;98.40;;;;;;5014488;28;20030;-67
2022/05/06 00:24:58;;;;;;;3.97;0.55;;;16.20;98.40;;;;;;5014721;28;20026;-67
2022/05/06 00:27:25;;;;;;;2.83;0.35;;;16.30;98.60;;;;;;5016112;28;20033;-68
2022/05/06 00:29:53;;;;;;;3.42;0.57;;;16.00;97.90;;;;;;5020967;28;20065;-68
2022/05/06 00:32:20;;;;;;;6.45;0.77;;;15.90;98.40;;;;;;5014626;28;20026;-68
2022/05/06 00:34:47;;;;;;;3.22;0.50;;;16.10;97.70;;;;;;5016100;28;20040;-67
2022/05/06 00:37:14;;;;;;;3.10;0.60;;;16.20;98.10;;;;;;5031463;28;20410;-67
2022/05/06 00:39:42;;;;;;;2.28;0.75;;;16.20;97.80;;;;;;5020802;28;20394;-68
2022/05/06 00:42:09;;;;;;;2.00;0.68;;;16.30;97.80;;;;;;5014508;28;20017;-68
2022/05/06 00:44:37;;;;;;;4.18;0.65;;;16.60;98.20;;;;;;5015456;28;20091;-68
2022/05/06 00:47:05;;;;;;;5.00;0.40;;;16.40;97.60;;;;;;5030562;28;20021;-67
2022/05/06 00:49:33;;;;;;;3.28;0.50;;;16.40;97.70;;;;;;5023667;28;20030;-68
2022/05/06 00:52:03;;;;;;;6.55;0.77;;;16.60;98.30;;;;;;5012679;28;20072;-68
2022/05/06 00:54:34;;;;;;;2.95;0.32;;;16.70;97.80;;;;;;5024384;28;20401;-68
2022/05/06 00:57:02;;;;;;;1.60;0.35;;;16.60;97.40;;;;;;5031937;28;20021;-67
2022/05/06 00:59:29;;;;;;;5.97;0.47;;;16.50;97.40;;;;;;5015140;28;20026;-68
2022/05/06 01:01:58;;;;;;;1.48;0.40;;;16.50;97.20;;;;;;5029989;28;20030;-67
2022/05/06 01:04:25;;;;;;;5.80;0.50;;;16.80;97.70;;;;;;5021387;28;20052;-68
2022/05/06 01:06:53;;;;;;;4.35;0.50;;;16.90;97.10;;;;;;5025348;28;20021;-68
2022/05/06 01:09:20;;;;;;;1.77;0.45;;;17.20;97.30;;;;;;5030493;28;20033;-68
2022/05/06 01:11:47;;;;;;;3.33;0.50;;;17.30;97.20;;;;;;5032704;28;20085;-68
2022/05/06 01:14:32;;;;;;;1.98;0.40;;;17.00;96.70;;;;;;5016564;28;20055;-68
2022/05/06 01:16:59;;;;;;;3.90;0.70;;;17.10;96.90;;;;;;5025522;28;20439;-68
2022/05/06 01:19:27;;;;;;;3.15;0.63;;;17.40;97.00;;;;;;5027481;28;20045;-68
2022/05/06 01:21:55;;;;;;;3.95;1.00;;;17.50;97.30;;;;;;5029478;28;20018;-68
2022/05/06 01:24:22;;;;;;;1.73;0.50;;;17.40;96.40;;;;;;5026491;28;20176;-68
2022/05/06 01:26:55;;;;;;;2.53;0.60;;;17.10;96.30;;;;;;5029766;28;20025;-68
2022/05/06 01:29:23;;;;;;;2.63;0.70;;;17.00;96.60;;;;;;5015283;28;20026;-68
2022/05/06 01:31:54;;;;;;;1.48;0.40;;;17.30;96.90;;;;;;5013763;28;20021;-68
2022/05/06 01:34:26;;;;;;;4.07;1.10;;;17.20;96.30;;;;;;5026575;28;20034;-68
2022/05/06 01:36:55;;;;;;;4.18;0.40;;;17.00;96.00;;;;;;5023708;28;20534;-68
2022/05/06 01:39:31;;;;;;;5.68;0.90;;;17.30;96.50;;;;;;5022768;28;20502;-68
2022/05/06 01:42:04;;;;;;;3.90;0.88;;;17.30;95.80;;;;;;5013337;28;20021;-68
2022/05/06 01:44:40;;;;;;;3.03;0.50;;;17.60;96.40;;;;;;5014231;28;20375;-68
2022/05/06 01:47:23;;;;;;;2.13;0.70;;;17.60;96.80;;;;;;5020651;28;20032;-68
2022/05/06 01:49:53;;;;;;;3.10;0.30;;;17.50;96.40;;;;;;5019351;28;20029;-68
2022/05/06 01:52:20;;;;;;;3.75;0.50;;;17.80;96.20;;;;;;5029201;28;20052;-68
2022/05/06 01:54:48;;;;;;;2.50;0.57;;;17.90;95.50;;;;;;5026287;28;20025;-68
2022/05/06 01:57:18;;;;;;;5.13;0.55;;;18.20;96.50;;;;;;5022362;28;20045;-68
2022/05/06 01:59:46;;;;;;;2.75;0.50;;;18.60;96.80;;;;;;5021602;28;20117;-68
2022/05/06 02:02:13;;;;;;;1.08;0.40;;;18.70;95.90;;;;;;5019384;28;20049;-68
2022/05/06 02:07:26;;;;;;;1.50;0.40;;;18.10;95.40;;;;;;5017049;28;21967;-67
2022/05/06 02:09:53;;;;;;;3.60;0.57;;;18.00;95.60;;;;;;5019756;28;20030;-69
2022/05/06 02:12:20;;;;;;;10.20;0.77;;;18.20;96.00;;;;;;5020465;28;20033;-69
2022/05/06 02:14:48;;;;;;;1.85;0.30;;;18.50;96.30;;;;;;5018788;28;20041;-69
2022/05/06 02:17:15;;;;;;;4.75;0.73;;;18.60;95.80;;;;;;5031100;28;20026;-68
2022/05/06 02:19:42;;;;;;;4.75;0.63;;;18.80;95.60;;;;;;5022437;28;20030;-68
2022/05/06 02:22:10;;;;;;;3.42;0.50;;;18.90;95.40;;;;;;5032553;28;20172;-69
2022/05/06 02:24:37;;;;;;;2.10;0.52;;;18.70;95.30;;;;;;5015411;28;20108;-68
2022/05/06 02:27:05;;;;;;;2.55;1.08;;;19.00;96.50;;;;;;5011515;28;20026;-69
2022/05/06 02:29:32;;;;;;;1.42;0.35;;;19.20;95.50;;;;;;5021618;28;20033;-69
2022/05/06 02:34:44;;;;;;;2.78;0.40;;;19.60;93.90;;;;;;5014553;28;20505;-68
2022/05/06 02:37:12;;;;;;;3.80;0.30;;;19.10;93.40;;;;;;5026878;28;20029;-69
2022/05/06 02:39:40;;;;;;;2.67;0.60;;;18.80;93.80;;;;;;5023800;28;20030;-68
2022/05/06 02:42:07;;;;;;;2.25;0.40;;;19.10;93.40;;;;;;5015702;28;20030;-68
2022/05/06 02:44:35;;;;;;;2.95;0.70;;;19.00;94.00;;;;;;5017118;28;20038;-68
2022/05/06 02:47:02;;;;;;;2.33;0.82;;;19.20;93.70;;;;;;5023737;28;20044;-68
2022/05/06 02:49:29;;;;;;;2.40;0.60;;;19.60;93.70;;;;;;5018989;28;20151;-69
2022/05/06 02:51:57;;;;;;;4.25;0.55;;;19.60;93.30;;;;;;5016706;28;20057;-68
2022/05/06 02:54:24;;;;;;;2.15;0.70;;;19.30;93.20;;;;;;5025431;28;20033;-69
2022/05/06 02:56:52;;;;;;;3.95;0.60;;;19.60;93.30;;;;;;5014861;28;20466;-69
2022/05/06 02:59:19;;;;;;;2.60;0.82;;;19.40;92.80;;;;;;5026618;28;20026;-68
2022/05/06 03:01:46;;;;;;;1.65;0.70;;;19.80;94.30;;;;;;5016085;28;20105;-69
2022/05/06 03:04:13;;;;;;;2.63;0.50;;;21.00;92.60;;;;;;5016426;28;20022;-68
2022/05/06 03:06:44;;;;;;;2.83;0.63;;;20.10;92.10;;;;;;5030177;28;20025;-68
2022/05/06 03:09:12;;;;;;;2.75;0.40;;;19.60;92.60;;;;;;5026261;28;20068;-69
2022/05/06 03:11:39;;;;;;;2.63;0.40;;;19.30;93.00;;;;;;5016016;28;20062;-69
2022/05/06 03:14:06;;;;;;;2.92;0.30;;;19.50;92.60;;;;;;5018860;28;20038;-69
2022/05/06 03:16:33;;;;;;;2.90;0.50;;;19.50;92.60;;;;;;5015824;28;20157;-69
2022/05/06 03:19:01;;;;;;;3.65;0.50;;;19.50;92.40;;;;;;5027971;28;20406;-68
2022/05/06 03:21:28;;;;;;;1.83;0.60;;;19.10;92.80;;;;;;5021476;28;20075;-68
2022/05/06 03:23:56;;;;;;;4.22;0.60;;;18.80;92.90;;;;;;5019707;28;20112;-69
2022/05/06 03:26:23;;;;;;;2.22;0.65;;;19.10;93.20;;;;;;5015709;28;20030;-69
2022/05/06 03:28:52;;;;;;;2.05;0.70;;;19.00;93.50;;;;;;5024701;28;20026;-68
2022/05/06 03:31:19;;;;;;;2.67;0.47;;;19.00;93.70;;;;;;5019687;28;20025;-69
2022/05/06 03:33:47;;;;;;;2.85;0.63;;;19.00;93.10;;;;;;5016834;28;20026;-69
2022/05/06 03:36:15;;;;;;;3.10;0.95;;;19.50;93.60;;;;;;5024085;28;20029;-69
2022/05/06 03:38:42;;;;;;;1.83;0.50;;;20.40;94.00;;;;;;5033446;28;20025;-69
2022/05/06 03:41:09;;;;;;;5.50;0.73;;;20.70;93.90;;;;;;5034284;28;20060;-69
2022/05/06 03:43:36;;;;;;;4.82;0.60;;;20.30;92.40;;;;;;5028219;28;20037;-69
2022/05/06 03:46:04;;;;;;;1.52;0.45;;;19.50;92.70;;;;;;5015279;28;20041;-69
2022/05/06 03:48:31;;;;;;;3.10;0.65;;;19.00;92.40;;;;;;5015421;28;20026;-69
2022/05/06 03:53:43;;;;;;;3.45;0.90;;;18.90;93.30;;;;;;5017996;28;20052;-69
2022/05/06 03:56:11;;;;;;;5.38;1.02;;;18.90;93.30;;;;;;5033895;28;20106;-69
2022/05/06 03:58:38;;;;;;;2.78;0.35;;;18.70;93.20;;;;;;5031353;28;20090;-69
2022/05/06 04:01:07;;;;;;;2.13;0.57;;;18.80;93.00;;;;;;5023297;28;20033;-69
2022/05/06 04:03:34;;;;;;;2.53;0.93;;;18.70;93.20;;;;;;5030632;28;20040;-69
2022/05/06 04:06:02;;;;;;;3.63;0.60;;;18.60;93.90;;;;;;5015099;28;20026;-69
2022/05/06 04:08:30;;;;;;;2.53;0.63;;;18.60;93.10;;;;;;5015561;28;20026;-69
2022/05/06 04:10:57;;;;;;;3.63;0.60;;;18.60;93.90;;;;;;5015076;28;20021;-68
2022/05/06 04:13:25;;;;;;;3.80;0.65;;;18.60;92.70;;;;;;5018305;28;20026;-68
2022/05/06 04:15:52;;;;;;;2.10;0.85;;;18.50;94.70;;;;;;5024620;28;20036;-68
2022/05/06 04:18:19;;;;;;;8.38;0.80;;;18.80;93.70;;;;;;5021943;28;20025;-68
2022/05/06 04:23:33;;;;;;;2.95;0.50;;;18.60;93.70;;;;;;5028334;28;20047;-68
2022/05/06 04:26:08;;;;;;;4.28;0.82;;;18.70;93.60;;;;;;5020931;28;20074;-68
2022/05/06 04:28:36;;;;;;;2.83;0.50;;;18.60;93.80;;;;;;5030443;28;20025;-68
2022/05/06 04:31:05;;;;;;;4.32;0.50;;;18.60;93.50;;;;;;5029249;28;20481;-68
2022/05/06 04:33:34;;;;;;;1.98;0.57;;;18.70;93.50;;;;;;5026774;28;20033;-68
2022/05/06 04:36:03;;;;;;;3.90;0.57;;;18.60;93.90;;;;;;5020318;28;20032;-68
2022/05/06 04:38:31;;;;;;;2.08;0.60;;;18.80;94.00;;;;;;5014914;28;22008;-68
2022/05/06 04:41:01;;;;;;;2.75;0.68;;;18.90;93.60;;;;;;5031431;28;20079;-68
2022/05/06 04:43:29;;;;;;;4.18;0.70;;;18.80;93.30;;;;;;5029853;28;20100;-68
2022/05/06 04:45:56;;;;;;;4.47;1.35;;;18.80;93.30;;;;;;5024365;28;20026;-68
2022/05/06 04:48:25;;;;;;;2.25;0.50;;;18.70;93.40;;;;;;5024924;28;20053;-68
2022/05/06 04:50:52;;;;;;;4.20;0.70;;;18.80;92.90;;;;;;5015145;28;20026;-68
2022/05/06 04:53:19;;;;;;;1.67;0.40;;;18.80;93.50;;;;;;5015312;28;20054;-68
2022/05/06 04:55:51;;;;;;;2.92;0.60;;;18.60;93.00;;;;;;5014412;28;20489;-68
2022/05/06 04:58:19;;;;;;;2.47;0.60;;;18.60;94.80;;;;;;5026239;28;20038;-68
2022/05/06 05:00:47;;;;;;;2.03;0.60;;;18.60;93.20;;;;;;5024653;28;20445;-68
2022/05/06 05:03:15;;;;;;;3.50;0.80;;;18.70;94.20;;;;;;5031794;28;20478;-68
2022/05/06 05:05:43;;;;;;;3.60;0.60;;;18.60;94.70;;;;;;5015742;28;20507;-68
2022/05/06 05:08:10;;;;;;;4.15;0.60;;;18.60;93.50;;;;;;5023543;28;20021;-69
2022/05/06 05:10:38;;;;;;;4.20;0.50;;;18.70;94.60;;;;;;5031562;28;20132;-68
2022/05/06 05:13:05;;;;;;;4.35;0.57;;;18.60;93.90;;;;;;5022224;28;20018;-68
2022/05/06 05:15:33;;;;;;;5.20;1.10;;;18.80;93.70;;;;;;5025292;28;20562;-68
2022/05/06 05:18:00;;;;;;;2.42;0.90;;;18.80;93.80;;;;;;5023423;28;20029;-68
2022/05/06 05:20:27;;;;;;;3.08;0.57;;;18.70;92.80;;;;;;5024986;28;20026;-68
2022/05/06 05:22:55;;;;;;;3.40;0.73;;;18.80;93.50;;;;;;5024810;28;20474;-68
2022/05/06 05:25:22;;;;;;;7.10;0.70;;;18.80;92.50;;;;;;5019767;28;20555;-68
2022/05/06 05:27:52;;;;;;;1.67;0.52;;;19.00;94.60;;;;;;5036927;28;20057;-68
2022/05/06 05:30:20;;;;;;;4.72;0.45;;;18.70;93.90;;;;;;5020832;28;20450;-68
2022/05/06 05:32:47;;;;;;;3.13;0.47;;;18.60;95.00;;;;;;5025753;28;20018;-68
2022/05/06 05:35:15;;;;;;;2.42;0.60;;;18.40;93.60;;;;;;5020511;28;21167;-68
2022/05/06 05:37:42;;;;;;;1.77;0.57;;;18.30;94.60;;;;;;5024244;28;20477;-68
2022/05/06 05:40:10;;;;;;;3.63;0.65;;;18.40;97.10;;;;;;5025528;28;20482;-68
2022/05/06 05:42:38;;;;;;;3.90;0.55;;;18.30;94.70;;;;;;5027335;28;20029;-68
2022/05/06 05:50:36;;;;;;;3.38;0.50;;;18.30;98.90;;;;;;5022695;28;20033;-68
2022/05/06 05:53:05;;;;;;;3.88;0.65;;;18.30;99.50;;;;;;5026323;28;20038;-68
2022/05/06 05:55:32;;;;;;;3.70;0.68;;;18.20;99.90;;;;;;5024896;28;20036;-68
2022/05/06 05:58:00;;;;;;;5.72;0.60;;;18.20;98.20;;;;;;5021066;28;20032;-68
2022/05/06 06:00:27;;;;;;;4.15;0.93;;;18.20;98.90;;;;;;5023652;28;20079;-68
2022/05/06 06:02:56;;;;;;;2.40;0.60;;;18.20;99.50;;;;;;5014539;28;20018;-68
2022/05/06 06:05:23;;;;;;;5.68;0.95;;;18.20;98.40;;;;;;5022956;28;20040;-68
2022/05/06 06:07:51;;;;;;;3.63;0.57;;;18.20;99.90;;;;;;5021784;28;20017;-68
2022/05/06 06:10:18;;;;;;;4.00;0.68;;;17.80;99.90;;;;;;5013498;28;20116;-68
2022/05/06 06:12:45;;;;;;;6.70;0.95;;;17.80;99.90;;;;;;5024129;28;20029;-67
2022/05/06 06:15:12;;;;;;;3.90;1.05;;;17.60;99.90;;;;;;5015216;28;20030;-68
2022/05/06 06:17:40;;;;;;;1.88;0.50;;;17.60;99.10;;;;;;5016006;28;20033;-68
2022/05/06 06:20:08;;;;;;;3.17;0.57;;;17.60;99.90;;;;;;5022537;28;20060;-68
2022/05/06 06:22:35;;;;;;;2.47;0.50;;;17.50;99.90;;;;;;5020543;28;20065;-68
2022/05/06 06:25:02;;;;;;;2.15;0.52;;;17.30;99.90;;;;;;5019989;28;20030;-68
2022/05/06 06:27:31;;;;;;;1.98;0.52;;;17.40;99.90;;;;;;5015579;28;20022;-68
2022/05/06 06:29:58;;;;;;;2.58;0.60;;;17.40;99.90;;;;;;5015955;28;20048;-68
2022/05/06 06:32:25;;;;;;;3.45;0.50;;;17.40;99.90;;;;;;5020782;28;20417;-68
2022/05/06 06:34:55;;;;;;;1.30;0.55;;;17.30;99.90;;;;;;5014711;28;20083;-68
2022/05/06 06:37:25;;;;;;;5.55;0.47;;;17.20;99.90;;;;;;5019297;28;20048;-68
2022/05/06 06:39:52;;;;;;;3.85;0.98;;;17.10;97.30;;;;;;5019486;28;20033;-68
2022/05/06 06:42:19;;;;;;;3.33;0.98;;;17.10;99.60;;;;;;5016823;28;20445;-68
2022/05/06 06:44:48;;;;;;;4.43;0.55;;;17.10;99.90;;;;;;5020010;28;20021;-69
2022/05/06 06:47:15;;;;;;;1.98;0.40;;;17.10;99.90;;;;;;5023084;28;21926;-68
2022/05/06 06:49:44;;;;;;;3.67;0.65;;;17.10;99.90;;;;;;5019513;28;20029;-69
2022/05/06 06:52:14;;;;;;;2.78;0.50;;;17.00;99.90;;;;;;5020242;28;20041;-69
2022/05/06 06:54:42;;;;;;;5.75;0.60;;;16.90;99.90;;;;;;5016389;28;20116;-69
2022/05/06 06:57:09;;;;;;;2.65;0.93;;;16.70;99.90;;;;;;5024279;28;20030;-69
2022/05/06 06:59:37;;;;;;;3.05;0.52;;;16.70;99.90;;;;;;5019124;28;20052;-68
2022/05/06 07:02:04;;;;;;;4.68;0.50;;;16.60;99.90;;;;;;5025648;28;20036;-69
2022/05/06 07:04:31;;;;;;;6.93;1.00;;;16.50;99.90;;;;;;5015836;28;20052;-69
2022/05/06 07:12:29;;;;;;;3.47;0.60;;;16.30;99.90;;;;;;5022069;28;20033;-69
2022/05/06 07:14:57;;;;;;;3.70;0.95;;;16.30;99.90;;;;;;5020583;28;20033;-68
2022/05/06 07:17:24;;;;;;;2.20;0.73;;;16.30;99.90;;;;;;5027305;28;20026;-69
2022/05/06 07:19:51;;;;;;;2.90;0.77;;;16.20;99.90;;;;;;5023772;28;20478;-69
2022/05/06 07:22:18;;;;;;;2.60;0.70;;;16.10;99.90;;;;;;5020124;28;20490;-68
2022/05/06 07:24:46;;;;;;;3.85;0.90;;;16.00;99.90;;;;;;5021233;28;20013;-69
2022/05/06 07:27:13;;;;;;;4.15;1.05;;;16.00;99.90;;;;;;5025023;28;20029;-69
2022/05/06 07:29:41;;;;;;;5.38;0.93;;;16.00;99.90;;;;;;5031980;28;20136;-69
2022/05/06 07:32:09;;;;;;;1.95;0.90;;;16.00;99.90;;;;;;5031613;28;20107;-69
2022/05/06 07:34:37;;;;;;;2.13;0.70;;;15.90;99.90;;;;;;5023331;28;20068;-69
2022/05/06 07:37:04;;;;;;;2.10;0.60;;;15.90;99.90;;;;;;5030190;28;20057;-69
2022/05/06 07:39:32;;;;;;;4.82;0.60;;;15.90;99.90;;;;;;5023734;28;20445;-69
2022/05/06 07:42:00;;;;;;;2.67;0.68;;;15.80;99.90;;;;;;5025391;28;20029;-69
2022/05/06 07:44:28;;;;;;;3.42;0.40;;;15.80;99.90;;;;;;5030318;28;20552;-69
2022/05/06 07:46:55;;;;;;;1.63;0.50;;;15.70;99.90;;;;;;5031527;28;20483;-69
2022/05/06 07:49:23;;;;;;;1.95;0.68;;;15.70;99.90;;;;;;5020446;28;20033;-69
2022/05/06 07:51:51;;;;;;;4.30;0.50;;;15.70;99.90;;;;;;5028682;28;20095;-68
2022/05/06 07:54:18;;;;;;;4.18;0.65;;;15.60;99.90;;;;;;5022730;28;20038;-69
2022/05/06 07:56:45;;;;;;;4.15;0.73;;;15.60;99.90;;;;;;5017635;28;20030;-69
2022/05/06 07:59:13;;;;;;;2.85;0.47;;;15.60;99.90;;;;;;5030621;28;20022;-69
2022/05/06 08:04:35;;;;;;;4.53;0.63;;;15.50;99.90;;;;;;5027993;28;20120;-69
2022/05/06 08:07:03;;;;;;;3.72;0.65;;;15.40;99.90;;;;;;5027072;28;20022;-69
2022/05/06 08:09:31;;;;;;;2.10;0.63;;;15.50;99.90;;;;;;5028466;28;20025;-69
2022/05/06 08:11:58;;;;;;;2.20;1.00;;;15.40;99.90;;;;;;5017100;28;20018;-68
2022/05/06 08:14:26;;;;;;;1.75;0.98;;;15.40;99.90;;;;;;5023530;28;20430;-68
2022/05/06 08:16:53;;;;;;;4.80;1.23;;;15.30;99.90;;;;;;5024554;28;20030;-69
2022/05/06 08:19:21;;;;;;;4.28;1.20;;;15.30;99.90;;;;;;5017127;28;20025;-68
2022/05/06 08:21:50;;;;;;;4.55;1.95;;;15.20;99.90;;;;;;5028125;28;20060;-69
2022/05/06 08:24:18;;;;;;;4.18;1.75;;;15.20;99.90;;;;;;5024709;28;20036;-69
2022/05/06 08:26:46;;;;;;;4.90;1.08;;;15.20;99.90;;;;;;5029114;28;20037;-68
2022/05/06 08:29:13;;;;;;;4.88;1.42;;;15.10;99.90;;;;;;5028997;28;20043;-68
2022/05/06 08:31:41;;;;;;;7.82;1.55;;;15.10;99.90;;;;;;5017780;28;20018;-69
2022/05/06 08:34:13;;;;;;;4.68;1.65;;;15.00;99.90;;;;;;5023851;28;20040;-68
2022/05/06 08:36:43;;;;;;;6.93;2.03;;;15.00;99.90;;;;;;5019618;28;20018;-68
2022/05/06 08:39:12;;;;;;;4.03;1.73;;;15.00;99.90;;;;;;5016007;28;20036;-68
2022/05/06 08:41:40;;;;;;;5.72;1.95;;;15.00;99.90;;;;;;5017271;28;20017;-69
2022/05/06 08:52:40;;;;;;;6.47;2.45;;;15.10;99.90;;;;;;5033853;28;20555;-69
2022/05/06 08:55:08;;;;;;;7.35;2.38;;;15.10;99.90;;;;;;5033496;28;20033;-69
2022/05/06 08:57:36;;;;;;;5.97;2.65;;;15.10;99.90;;;;;;5033726;28;20062;-68
2022/05/06 09:00:05;;;;;;;8.27;3.40;;;15.10;99.90;;;;;;5033837;28;20296;-68
2022/05/06 09:02:32;;;;;;;8.23;3.22;;;15.10;99.90;;;;;;5018853;28;20026;-69
2022/05/06 09:05:00;;;;;;;10.30;3.33;;;15.10;99.90;;;;;;5012839;28;20025;-68
2022/05/06 09:07:27;;;;;;;6.68;3.53;;;15.10;99.90;;;;;;5014160;28;20528;-69
2022/05/06 09:10:15;;;;;;;11.32;3.28;;;15.20;99.90;;;;;;5014065;28;20379;-68
2022/05/06 09:12:44;;;;;;;7.38;3.55;;;15.20;99.90;;;;;;5012435;28;20498;-68
2022/05/06 09:18:09;;;;;;;8.10;3.00;;;15.10;99.90;;;;;;5013568;28;20059;-68
2022/05/06 09:20:38;;;;;;;6.13;2.33;;;15.20;99.90;;;;;;5029258;28;20060;-69
2022/05/06 09:23:28;;;;;;;8.10;2.35;;;15.20;99.90;;;;;;5013800;28;20018;-69
2022/05/06 09:25:56;;;;;;;6.95;2.53;;;15.20;99.90;;;;;;5017328;28;20026;-69
2022/05/06 09:28:28;;;;;;;4.85;2.45;;;15.20;99.90;;;;;;5013574;28;20026;-68
2022/05/06 09:31:02;;;;;;;8.40;3.45;;;15.20;99.90;;;;;;5013424;28;20026;-69
2022/05/06 09:33:30;;;;;;;9.97;3.63;;;15.30;99.90;;;;;;5012345;28;20080;-69
2022/05/06 09:35:58;;;;;;;7.28;3.38;;;15.30;99.90;;;;;;5013906;28;20341;-68
2022/05/06 09:38:29;;;;;;;9.35;3.63;;;15.30;99.90;;;;;;5013537;28;20494;-68
2022/05/06 09:40:57;;;;;;;14.20;6.13;;;15.20;99.90;;;;;;5012249;28;20021;-68
2022/05/06 09:43:26;;;;;;;10.73;5.75;;;15.20;99.90;;;;;;5013697;28;20084;-69
2022/05/06 09:45:53;;;;;;;10.93;3.85;;;15.20;99.90;;;;;;5015022;28;20029;-68
2022/05/06 09:48:21;;;;;;;8.40;2.78;;;15.10;99.90;;;;;;5031448;28;20082;-69
2022/05/06 09:50:49;;;;;;;6.43;2.78;;;15.20;99.90;;;;;;5032880;28;20032;-68
2022/05/06 09:53:18;;;;;;;6.70;2.50;;;15.20;99.90;;;;;;5030823;28;20052;-68
2022/05/06 09:55:46;;;;;;;6.82;2.30;;;15.20;99.90;;;;;;5015880;28;20056;-69
2022/05/06 09:58:15;;;;;;;11.63;3.40;;;15.20;99.90;;;;;;5013364;28;20026;-68
2022/05/06 10:00:43;;;;;;;6.40;2.90;;;15.10;99.90;;;;;;5013360;28;20033;-68
2022/05/06 10:03:10;;;;;;;9.65;3.42;;;15.00;99.90;;;;;;5013346;28;20041;-68
2022/05/06 10:05:39;;;;;;;7.20;3.53;;;14.90;99.90;;;;;;5013388;28;20058;-68
2022/05/06 10:08:20;;;;;;;9.77;3.45;;;14.90;99.90;;;;;;5013261;28;20037;-67
2022/05/06 10:11:02;;;;;;;7.82;3.30;;;14.80;99.90;;;;;;5013521;28;20152;-69
2022/05/06 10:13:32;;;;;;;12.68;3.15;;;14.80;99.90;;;;;;5024506;28;20488;-68
2022/05/06 10:16:00;;;;;;;10.52;3.60;;;14.90;99.90;;;;;;5032916;28;20497;-68
2022/05/06 10:18:43;;;;;;;11.68;4.72;;;14.80;99.90;;;;;;5032897;28;20132;-68
2022/05/06 10:21:12;;;;;;;7.28;3.22;;;14.80;99.90;;;;;;5020865;28;20410;-68
2022/05/06 10:23:48;;;;;;;9.43;3.85;;;14.70;99.90;;;;;;5011453;28;20061;-68
2022/05/06 10:26:37;;;;;;;6.70;3.47;;;14.80;99.90;;;;;;5013608;28;20577;-68
2022/05/06 10:34:56;;;;;;;6.95;3.33;;;14.80;99.90;;;;;;5012853;28;20045;-68
2022/05/06 10:37:26;;;;;;;9.20;3.80;;;14.80;99.90;;;;;;5012908;28;20038;-68
2022/05/06 10:39:57;;;;;;;16.17;4.60;;;14.70;99.90;;;;;;5012938;28;20068;-68
2022/05/06 10:42:36;;;;;;;8.00;4.13;;;14.50;99.90;;;;;;5015435;28;20400;-68
2022/05/06 10:45:33;;;;;;;10.38;3.85;;;14.50;99.90;;;;;;5013467;28;20133;-68
2022/05/06 10:48:01;;;;;;;7.82;3.90;;;14.40;99.90;;;;;;5031592;28;20030;-68
2022/05/06 10:50:39;;;;;;;8.02;3.38;;;14.30;99.90;;;;;;5032246;28;20024;-68
2022/05/06 10:53:06;;;;;;;4.82;2.95;;;14.20;99.90;;;;;;5032069;28;20060;-68
2022/05/06 10:55:33;;;;;;;4.38;2.55;;;14.20;99.90;;;;;;5032477;28;20212;-68
2022/05/06 10:58:06;;;;;;;5.93;2.92;;;14.10;99.90;;;;;;5032655;28;20391;-68
2022/05/06 11:00:38;;;;;;;9.85;3.28;;;14.00;99.90;;;;;;5033382;28;20112;-68
2022/05/06 11:03:09;;;;;;;9.43;2.38;;;14.00;99.90;;;;;;5035994;28;20496;-68
2022/05/06 11:05:39;;;;;;;6.32;2.35;;;14.00;99.90;;;;;;5036354;28;20600;-68
2022/05/06 11:08:07;;;;;;;5.05;2.13;;;14.00;99.90;;;;;;5028741;28;20029;-68
2022/05/06 11:10:35;;;;;;;6.93;1.70;;;13.90;99.90;;;;;;5016363;28;20030;-68
2022/05/06 11:13:08;;;;;;;3.65;1.70;;;14.00;99.90;;;;;;5016181;28;20034;-68
2022/05/06 11:15:36;;;;;;;5.60;1.70;;;13.90;99.90;;;;;;5019623;28;20045;-68
2022/05/06 11:18:06;;;;;;;4.43;1.13;;;13.90;99.90;;;;;;5015337;28;20026;-68
2022/05/06 11:20:37;;;;;;;6.88;2.15;;;13.80;99.90;;;;;;5015962;28;20029;-68
2022/05/06 11:23:13;;;;;;;5.40;1.50;;;13.80;99.90;;;;;;5017819;28;20036;-68
2022/05/06 11:25:48;;;;;;;4.90;1.75;;;13.80;99.90;;;;;;5034943;28;20036;-68
2022/05/06 11:28:17;;;;;;;5.18;1.30;;;13.80;99.90;;;;;;5031442;28;20472;-68
2022/05/06 11:30:46;;;;;;;4.45;1.75;;;13.70;99.90;;;;;;5035234;28;20033;-68
2022/05/06 11:33:24;;;;;;;5.78;1.98;;;13.80;99.90;;;;;;5035304;28;20062;-68
2022/05/06 11:36:01;;;;;;;7.45;1.92;;;13.70;99.90;;;;;;5017965;28;20034;-68
2022/05/06 11:38:38;;;;;;;3.78;1.40;;;13.60;99.90;;;;;;5031269;28;20115;-69
2022/05/06 11:41:14;;;;;;;3.78;1.55;;;13.50;99.90;;;;;;5035452;28;20021;-68
2022/05/06 11:43:43;;;;;;;3.42;1.10;;;13.50;99.90;;;;;;5034198;28;20030;-68
2022/05/06 11:49:06;;;;;;;3.20;1.35;;;13.40;99.90;;;;;;5015568;28;20556;-68
2022/05/06 11:51:43;;;;;;;2.83;1.23;;;13.40;99.90;;;;;;5022069;28;20037;-68
2022/05/06 11:54:16;;;;;;;4.00;1.27;;;13.40;99.90;;;;;;5035411;28;20061;-68
2022/05/06 11:56:44;;;;;;;4.90;1.48;;;13.40;99.90;;;;;;5035152;28;20025;-68
2022/05/06 11:59:11;;;;;;;6.00;1.40;;;13.40;99.90;;;;;;5035024;28;20032;-68
2022/05/06 12:01:41;;;;;;;4.63;1.23;;;13.30;99.90;;;;;;5034940;28;20032;-68
2022/05/06 12:04:10;;;;;;;3.38;1.00;;;13.20;99.90;;;;;;5034923;28;20087;-68
2022/05/06 12:06:40;;;;;;;3.08;1.23;;;13.20;99.90;;;;;;5033901;28;20504;-68
2022/05/06 12:09:18;;;;;;;3.83;1.10;;;13.20;99.90;;;;;;5026617;28;20018;-68
2022/05/06 12:11:46;;;;;;;6.10;1.10;;;13.20;99.90;;;;;;5023906;28;20102;-68
2022/05/06 12:14:19;;;;;;;3.80;1.17;;;13.10;99.90;;;;;;5025554;28;20018;-68
2022/05/06 12:17:00;;;;;;;3.58;1.60;;;13.20;99.90;;;;;;5027173;28;20466;-68
2022/05/06 12:19:40;;;;;;;3.63;1.17;;;13.10;99.90;;;;;;5022963;28;20064;-68
2022/05/06 12:22:21;;;;;;;3.50;1.63;;;13.00;99.90;;;;;;5022241;28;20033;-68
2022/05/06 12:24:50;;;;;;;2.42;0.93;;;13.00;99.90;;;;;;5023653;28;20092;-68
2022/05/06 12:27:28;;;;;;;3.63;1.63;;;12.90;99.90;;;;;;5022313;28;20083;-68
2022/05/06 12:30:01;;;;;;;3.75;1.30;;;12.90;99.90;;;;;;5020860;28;20037;-68
2022/05/06 12:32:28;;;;;;;3.65;1.10;;;12.90;99.90;;;;;;5029363;28;20025;-68
2022/05/06 12:35:06;;;;;;;5.90;1.80;;;13.00;99.90;;;;;;5019661;28;20037;-68
2022/05/06 12:37:33;;;;;;;5.25;1.65;;;13.00;99.90;;;;;;5021049;28;20335;-68
2022/05/06 12:40:01;;;;;;;3.22;1.10;;;12.90;99.90;;;;;;5021860;28;20030;-68
2022/05/06 12:42:29;;;;;;;3.47;1.30;;;12.70;99.90;;;;;;5022431;28;20037;-68
2022/05/06 12:45:03;;;;;;;6.85;1.10;;;12.80;99.90;;;;;;5024541;28;20394;-69
2022/05/06 12:50:16;;;;;;;2.35;1.05;;;12.60;99.90;;;;;;5022520;28;20048;-68
2022/05/06 12:52:44;;;;;;;4.15;0.90;;;12.60;99.90;;;;;;5029491;28;20049;-69
2022/05/06 12:55:11;;;;;;;2.20;0.68;;;12.50;99.90;;;;;;5031062;28;20041;-69
2022/05/06 12:57:39;;;;;;;3.45;1.10;;;12.40;99.90;;;;;;5024736;28;20036;-68
2022/05/06 13:00:07;;;;;;;2.38;0.85;;;12.40;99.90;;;;;;5027501;28;20017;-69
2022/05/06 13:02:34;;;;;;;5.13;1.40;;;12.50;99.90;;;;;;5023778;28;20100;-68
2022/05/06 13:05:01;;;;;;;4.75;1.10;;;12.50;99.90;;;;;;5025659;28;20029;-68
2022/05/06 13:07:28;;;;;;;4.88;1.25;;;12.50;99.90;;;;;;5024198;28;20087;-68
2022/05/06 13:09:56;;;;;;;4.20;1.10;;;12.40;99.90;;;;;;5024229;28;20021;-68
2022/05/06 13:12:23;;;;;;;3.85;0.93;;;12.40;99.90;;;;;;5017027;28;20498;-69
2022/05/06 13:14:51;;;;;;;5.55;0.80;;;12.30;99.90;;;;;;5027160;28;20058;-68
2022/05/06 13:17:18;;;;;;;5.70;1.42;;;12.40;99.90;;;;;;5023562;28;20034;-68
2022/05/06 13:19:45;;;;;;;3.75;1.00;;;12.40;99.90;;;;;;5013591;28;20032;-68
2022/05/06 13:22:14;;;;;;;3.53;1.38;;;12.20;99.90;;;;;;5020209;28;20041;-68
2022/05/06 13:24:41;;;;;;;6.75;1.30;;;12.30;99.90;;;;;;5014778;28;20137;-68
2022/05/06 13:27:08;;;;;;;4.40;1.00;;;12.20;99.90;;;;;;5020878;28;20505;-68
2022/05/06 13:29:35;;;;;;;4.43;0.75;;;12.40;99.90;;;;;;5025053;28;20040;-68
2022/05/06 13:32:03;;;;;;;3.78;0.95;;;12.20;99.90;;;;;;5023569;28;20128;-68
2022/05/06 13:34:30;;;;;;;5.00;0.95;;;12.10;99.90;;;;;;5027020;28;20041;-68
2022/05/06 13:36:57;;;;;;;2.28;0.50;;;12.20;99.90;;;;;;5026542;28;20055;-68
2022/05/06 13:39:24;;;;;;;1.83;0.50;;;12.30;99.90;;;;;;5019398;28;20017;-68
2022/05/06 13:41:52;;;;;;;1.83;0.85;;;12.20;99.90;;;;;;5024351;28;20034;-68